sensor_id;sensor_type;location;lat;lon;timestamp;P1;durP1;ratioP1;P2;durP2;ratioP2
48647;SDS011;34437;-33.956;151.076;2023-03-01T00:00:50;4.85;;;3.72;;
48647;SDS011;34437;-33.956;151.076;2023-03-01T00:03:13;5.68;;;3.83;;
48647;SDS011;34437;-33.956;151.076;2023-03-01T00:05:35;6.10;;;3.38;;
48647;SDS011;34437;-33.956;151.076;2023-03-01T00:07:58;5.40;;;3.47;;
48647;SDS011;34437;-33.956;151.076;2023-03-01T00:10:20;6.32;;;3.17;;
48647;SDS011;34437;-33.956;151.076;2023-03-01T00:12:43;8.18;;;3.72;;
48647;SDS011;34437;-33.956;151.076;2023-03-01T00:15:05;4.07;;;3.00;;
48647;SDS011;34437;-33.956;151.076;2023-03-01T00:17:28;6.82;;;3.50;;
48647;SDS011;34437;-33.956;151.076;2023-03-01T00:19:51;5.38;;;3.10;;
48647;SDS011;34437;-33.956;151.076;2023-03-01T00:22:13;4.68;;;3.13;;
48647;SDS011;34437;-33.956;151.076;2023-03-01T00:24:35;5.38;;;3.10;;
48647;SDS011;34437;-33.956;151.076;2023-03-01T00:26:58;4.47;;;3.00;;
48647;SDS011;34437;-33.956;151.076;2023-03-01T00:29:21;4.38;;;2.83;;
48647;SDS011;34437;-33.956;151.076;2023-03-01T00:31:45;3.78;;;2.95;;
48647;SDS011;34437;-33.956;151.076;2023-03-01T00:34:07;3.92;;;2.65;;
48647;SDS011;34437;-33.956;151.076;2023-03-01T00:36:32;4.20;;;2.95;;
48647;SDS011;34437;-33.956;151.076;2023-03-01T00:38:58;4.05;;;2.97;;
48647;SDS011;34437;-33.956;151.076;2023-03-01T00:41:21;5.22;;;2.97;;
48647;SDS011;34437;-33.956;151.076;2023-03-01T00:43:43;4.93;;;2.95;;
48647;SDS011;34437;-33.956;151.076;2023-03-01T00:46:07;4.07;;;2.92;;
48647;SDS011;34437;-33.956;151.076;2023-03-01T00:48:32;4.63;;;3.05;;
48647;SDS011;34437;-33.956;151.076;2023-03-01T00:50:55;3.77;;;2.80;;
48647;SDS011;34437;-33.956;151.076;2023-03-01T00:53:17;3.58;;;2.72;;
48647;SDS011;34437;-33.956;151.076;2023-03-01T00:55:39;3.60;;;2.70;;
48647;SDS011;34437;-33.956;151.076;2023-03-01T00:58:02;5.72;;;2.83;;
48647;SDS011;34437;-33.956;151.076;2023-03-01T01:00:24;4.45;;;2.95;;
48647;SDS011;34437;-33.956;151.076;2023-03-01T01:02:48;4.57;;;2.85;;
48647;SDS011;34437;-33.956;151.076;2023-03-01T01:05:11;6.87;;;3.30;;
48647;SDS011;34437;-33.956;151.076;2023-03-01T01:07:34;5.27;;;2.80;;
48647;SDS011;34437;-33.956;151.076;2023-03-01T01:09:56;5.60;;;2.72;;
48647;SDS011;34437;-33.956;151.076;2023-03-01T01:12:19;3.72;;;2.65;;
48647;SDS011;34437;-33.956;151.076;2023-03-01T01:14:41;4.60;;;2.75;;
48647;SDS011;34437;-33.956;151.076;2023-03-01T01:17:04;3.95;;;2.50;;
48647;SDS011;34437;-33.956;151.076;2023-03-01T01:19:26;3.40;;;2.45;;
48647;SDS011;34437;-33.956;151.076;2023-03-01T01:21:49;3.42;;;2.40;;
48647;SDS011;34437;-33.956;151.076;2023-03-01T01:24:12;5.70;;;2.40;;
48647;SDS011;34437;-33.956;151.076;2023-03-01T01:26:34;3.13;;;2.30;;
48647;SDS011;34437;-33.956;151.076;2023-03-01T01:28:57;3.58;;;2.30;;
48647;SDS011;34437;-33.956;151.076;2023-03-01T01:31:20;4.30;;;2.47;;
48647;SDS011;34437;-33.956;151.076;2023-03-01T01:33:46;3.83;;;2.30;;
48647;SDS011;34437;-33.956;151.076;2023-03-01T01:36:09;4.20;;;2.05;;
48647;SDS011;34437;-33.956;151.076;2023-03-01T01:38:32;5.82;;;2.60;;
48647;SDS011;34437;-33.956;151.076;2023-03-01T01:40:55;3.25;;;1.83;;
48647;SDS011;34437;-33.956;151.076;2023-03-01T01:45:49;3.55;;;1.90;;
48647;SDS011;34437;-33.956;151.076;2023-03-01T01:48:22;2.63;;;1.65;;
48647;SDS011;34437;-33.956;151.076;2023-03-01T01:51:01;5.53;;;2.03;;
48647;SDS011;34437;-33.956;151.076;2023-03-01T01:53:23;3.27;;;1.80;;
48647;SDS011;34437;-33.956;151.076;2023-03-01T01:55:51;4.53;;;2.00;;
48647;SDS011;34437;-33.956;151.076;2023-03-01T01:58:19;2.42;;;1.63;;
48647;SDS011;34437;-33.956;151.076;2023-03-01T02:00:43;3.42;;;1.88;;
48647;SDS011;34437;-33.956;151.076;2023-03-01T02:03:07;2.50;;;1.80;;
48647;SDS011;34437;-33.956;151.076;2023-03-01T02:05:53;2.17;;;1.73;;
48647;SDS011;34437;-33.956;151.076;2023-03-01T02:08:36;2.70;;;1.80;;
48647;SDS011;34437;-33.956;151.076;2023-03-01T02:11:00;2.90;;;2.17;;
48647;SDS011;34437;-33.956;151.076;2023-03-01T02:13:25;3.35;;;1.83;;
48647;SDS011;34437;-33.956;151.076;2023-03-01T02:15:48;3.13;;;1.90;;
48647;SDS011;34437;-33.956;151.076;2023-03-01T02:18:11;3.13;;;1.98;;
48647;SDS011;34437;-33.956;151.076;2023-03-01T02:23:25;2.22;;;1.45;;
48647;SDS011;34437;-33.956;151.076;2023-03-01T02:25:54;3.55;;;1.75;;
48647;SDS011;34437;-33.956;151.076;2023-03-01T02:28:31;2.80;;;1.90;;
48647;SDS011;34437;-33.956;151.076;2023-03-01T02:30:54;2.25;;;1.58;;
48647;SDS011;34437;-33.956;151.076;2023-03-01T02:33:36;2.13;;;1.70;;
48647;SDS011;34437;-33.956;151.076;2023-03-01T02:36:00;4.55;;;1.77;;
48647;SDS011;34437;-33.956;151.076;2023-03-01T02:38:30;3.10;;;1.77;;
48647;SDS011;34437;-33.956;151.076;2023-03-01T02:40:54;4.30;;;1.58;;
48647;SDS011;34437;-33.956;151.076;2023-03-01T02:43:18;8.38;;;2.20;;
48647;SDS011;34437;-33.956;151.076;2023-03-01T02:45:50;2.85;;;1.60;;
48647;SDS011;34437;-33.956;151.076;2023-03-01T02:48:14;1.70;;;1.13;;
48647;SDS011;34437;-33.956;151.076;2023-03-01T02:50:51;4.05;;;1.73;;
48647;SDS011;34437;-33.956;151.076;2023-03-01T02:53:41;3.13;;;1.42;;
48647;SDS011;34437;-33.956;151.076;2023-03-01T02:56:14;2.17;;;1.55;;
48647;SDS011;34437;-33.956;151.076;2023-03-01T02:58:39;1.88;;;1.13;;
48647;SDS011;34437;-33.956;151.076;2023-03-01T03:01:06;2.60;;;1.50;;
48647;SDS011;34437;-33.956;151.076;2023-03-01T03:05:51;2.75;;;1.48;;
48647;SDS011;34437;-33.956;151.076;2023-03-01T03:08:14;2.72;;;1.30;;
48647;SDS011;34437;-33.956;151.076;2023-03-01T03:10:44;2.30;;;1.25;;
48647;SDS011;34437;-33.956;151.076;2023-03-01T03:13:08;1.70;;;1.13;;
48647;SDS011;34437;-33.956;151.076;2023-03-01T03:15:32;3.15;;;1.70;;
48647;SDS011;34437;-33.956;151.076;2023-03-01T03:17:59;1.52;;;1.30;;
48647;SDS011;34437;-33.956;151.076;2023-03-01T03:20:23;2.05;;;1.50;;
48647;SDS011;34437;-33.956;151.076;2023-03-01T03:22:49;2.40;;;1.20;;
48647;SDS011;34437;-33.956;151.076;2023-03-01T03:25:13;1.48;;;1.35;;
48647;SDS011;34437;-33.956;151.076;2023-03-01T03:27:36;2.92;;;1.40;;
48647;SDS011;34437;-33.956;151.076;2023-03-01T03:32:21;1.45;;;1.30;;
48647;SDS011;34437;-33.956;151.076;2023-03-01T03:34:44;1.92;;;1.25;;
48647;SDS011;34437;-33.956;151.076;2023-03-01T03:37:06;1.47;;;1.23;;
48647;SDS011;34437;-33.956;151.076;2023-03-01T03:39:48;2.03;;;1.33;;
48647;SDS011;34437;-33.956;151.076;2023-03-01T03:42:15;3.03;;;1.00;;
48647;SDS011;34437;-33.956;151.076;2023-03-01T03:44:40;1.88;;;1.25;;
48647;SDS011;34437;-33.956;151.076;2023-03-01T03:47:03;1.75;;;1.20;;
48647;SDS011;34437;-33.956;151.076;2023-03-01T03:49:25;1.58;;;1.08;;
48647;SDS011;34437;-33.956;151.076;2023-03-01T03:51:48;2.05;;;1.10;;
48647;SDS011;34437;-33.956;151.076;2023-03-01T03:54:10;1.42;;;1.10;;
48647;SDS011;34437;-33.956;151.076;2023-03-01T03:56:32;1.63;;;1.00;;
48647;SDS011;34437;-33.956;151.076;2023-03-01T03:58:55;1.42;;;0.60;;
48647;SDS011;34437;-33.956;151.076;2023-03-01T04:01:18;1.55;;;0.90;;
48647;SDS011;34437;-33.956;151.076;2023-03-01T04:03:40;2.13;;;0.88;;
48647;SDS011;34437;-33.956;151.076;2023-03-01T04:06:07;0.68;;;0.68;;
48647;SDS011;34437;-33.956;151.076;2023-03-01T04:08:29;0.63;;;0.60;;
48647;SDS011;34437;-33.956;151.076;2023-03-01T04:10:56;0.88;;;0.60;;
48647;SDS011;34437;-33.956;151.076;2023-03-01T04:13:41;1.63;;;0.75;;
48647;SDS011;34437;-33.956;151.076;2023-03-01T04:16:04;1.38;;;1.00;;
48647;SDS011;34437;-33.956;151.076;2023-03-01T04:18:27;1.05;;;0.80;;
48647;SDS011;34437;-33.956;151.076;2023-03-01T04:20:49;1.38;;;0.68;;
48647;SDS011;34437;-33.956;151.076;2023-03-01T04:23:16;0.90;;;0.60;;
48647;SDS011;34437;-33.956;151.076;2023-03-01T04:28:06;1.10;;;0.80;;
48647;SDS011;34437;-33.956;151.076;2023-03-01T04:30:29;1.08;;;0.60;;
48647;SDS011;34437;-33.956;151.076;2023-03-01T04:32:56;0.95;;;0.55;;
48647;SDS011;34437;-33.956;151.076;2023-03-01T04:35:18;1.27;;;0.65;;
48647;SDS011;34437;-33.956;151.076;2023-03-01T04:37:41;1.40;;;0.73;;
48647;SDS011;34437;-33.956;151.076;2023-03-01T04:42:45;1.25;;;0.68;;
48647;SDS011;34437;-33.956;151.076;2023-03-01T04:45:08;2.67;;;1.10;;
48647;SDS011;34437;-33.956;151.076;2023-03-01T04:47:36;2.28;;;0.80;;
48647;SDS011;34437;-33.956;151.076;2023-03-01T04:49:59;1.27;;;0.77;;
48647;SDS011;34437;-33.956;151.076;2023-03-01T04:52:21;1.65;;;0.70;;
48647;SDS011;34437;-33.956;151.076;2023-03-01T04:54:44;1.03;;;0.77;;
48647;SDS011;34437;-33.956;151.076;2023-03-01T04:57:07;1.67;;;0.90;;
48647;SDS011;34437;-33.956;151.076;2023-03-01T04:59:29;0.90;;;0.70;;
48647;SDS011;34437;-33.956;151.076;2023-03-01T05:01:52;1.23;;;0.65;;
48647;SDS011;34437;-33.956;151.076;2023-03-01T05:04:17;1.08;;;0.60;;
48647;SDS011;34437;-33.956;151.076;2023-03-01T05:06:39;1.38;;;0.60;;
48647;SDS011;34437;-33.956;151.076;2023-03-01T05:09:02;0.98;;;0.60;;
48647;SDS011;34437;-33.956;151.076;2023-03-01T05:11:24;1.48;;;0.85;;
48647;SDS011;34437;-33.956;151.076;2023-03-01T05:13:48;1.20;;;0.80;;
48647;SDS011;34437;-33.956;151.076;2023-03-01T05:16:15;1.88;;;0.90;;
48647;SDS011;34437;-33.956;151.076;2023-03-01T05:18:38;1.13;;;0.65;;
48647;SDS011;34437;-33.956;151.076;2023-03-01T05:21:03;1.50;;;1.00;;
48647;SDS011;34437;-33.956;151.076;2023-03-01T05:23:31;1.42;;;0.90;;
48647;SDS011;34437;-33.956;151.076;2023-03-01T05:25:56;2.22;;;0.82;;
48647;SDS011;34437;-33.956;151.076;2023-03-01T05:28:23;2.92;;;1.20;;
48647;SDS011;34437;-33.956;151.076;2023-03-01T05:30:46;2.72;;;1.30;;
48647;SDS011;34437;-33.956;151.076;2023-03-01T05:33:08;1.90;;;1.02;;
48647;SDS011;34437;-33.956;151.076;2023-03-01T05:35:33;1.27;;;0.90;;
48647;SDS011;34437;-33.956;151.076;2023-03-01T05:37:56;1.05;;;0.80;;
48647;SDS011;34437;-33.956;151.076;2023-03-01T05:40:19;2.63;;;0.90;;
48647;SDS011;34437;-33.956;151.076;2023-03-01T05:42:48;3.08;;;1.30;;
48647;SDS011;34437;-33.956;151.076;2023-03-01T05:45:15;1.98;;;1.05;;
48647;SDS011;34437;-33.956;151.076;2023-03-01T05:47:39;2.55;;;1.00;;
48647;SDS011;34437;-33.956;151.076;2023-03-01T05:50:05;1.42;;;0.90;;
48647;SDS011;34437;-33.956;151.076;2023-03-01T05:52:28;3.30;;;1.48;;
48647;SDS011;34437;-33.956;151.076;2023-03-01T05:54:50;3.50;;;1.63;;
48647;SDS011;34437;-33.956;151.076;2023-03-01T05:57:13;4.30;;;2.00;;
48647;SDS011;34437;-33.956;151.076;2023-03-01T05:59:35;2.15;;;1.40;;
48647;SDS011;34437;-33.956;151.076;2023-03-01T06:01:57;4.65;;;2.08;;
48647;SDS011;34437;-33.956;151.076;2023-03-01T06:04:20;3.17;;;1.48;;
48647;SDS011;34437;-33.956;151.076;2023-03-01T06:06:42;2.70;;;1.25;;
48647;SDS011;34437;-33.956;151.076;2023-03-01T06:09:05;3.50;;;1.50;;
48647;SDS011;34437;-33.956;151.076;2023-03-01T06:11:30;2.85;;;1.60;;
48647;SDS011;34437;-33.956;151.076;2023-03-01T06:13:52;3.50;;;1.60;;
48647;SDS011;34437;-33.956;151.076;2023-03-01T06:16:14;3.45;;;1.42;;
48647;SDS011;34437;-33.956;151.076;2023-03-01T06:18:37;2.92;;;1.40;;
48647;SDS011;34437;-33.956;151.076;2023-03-01T06:21:00;4.38;;;1.73;;
48647;SDS011;34437;-33.956;151.076;2023-03-01T06:23:22;2.47;;;1.30;;
48647;SDS011;34437;-33.956;151.076;2023-03-01T06:25:45;2.50;;;1.20;;
48647;SDS011;34437;-33.956;151.076;2023-03-01T06:28:07;2.53;;;1.45;;
48647;SDS011;34437;-33.956;151.076;2023-03-01T06:30:30;1.73;;;1.05;;
48647;SDS011;34437;-33.956;151.076;2023-03-01T06:32:52;3.60;;;1.65;;
48647;SDS011;34437;-33.956;151.076;2023-03-01T06:35:21;3.00;;;1.50;;
48647;SDS011;34437;-33.956;151.076;2023-03-01T06:37:44;3.78;;;1.52;;
48647;SDS011;34437;-33.956;151.076;2023-03-01T06:40:08;1.70;;;1.30;;
48647;SDS011;34437;-33.956;151.076;2023-03-01T06:42:32;2.80;;;1.55;;
48647;SDS011;34437;-33.956;151.076;2023-03-01T06:44:55;1.80;;;0.90;;
48647;SDS011;34437;-33.956;151.076;2023-03-01T06:47:17;2.42;;;1.42;;
48647;SDS011;34437;-33.956;151.076;2023-03-01T06:49:40;3.05;;;1.40;;
48647;SDS011;34437;-33.956;151.076;2023-03-01T06:52:02;2.45;;;1.20;;
48647;SDS011;34437;-33.956;151.076;2023-03-01T06:54:25;2.33;;;1.38;;
48647;SDS011;34437;-33.956;151.076;2023-03-01T06:56:48;3.15;;;1.45;;
48647;SDS011;34437;-33.956;151.076;2023-03-01T06:59:11;2.50;;;1.20;;
48647;SDS011;34437;-33.956;151.076;2023-03-01T07:01:33;3.28;;;1.25;;
48647;SDS011;34437;-33.956;151.076;2023-03-01T07:03:56;3.10;;;1.20;;
48647;SDS011;34437;-33.956;151.076;2023-03-01T07:06:18;2.60;;;1.35;;
48647;SDS011;34437;-33.956;151.076;2023-03-01T07:08:41;2.92;;;1.30;;
48647;SDS011;34437;-33.956;151.076;2023-03-01T07:11:03;2.22;;;1.30;;
48647;SDS011;34437;-33.956;151.076;2023-03-01T07:13:26;3.20;;;1.77;;
48647;SDS011;34437;-33.956;151.076;2023-03-01T07:15:49;3.28;;;1.45;;
48647;SDS011;34437;-33.956;151.076;2023-03-01T07:18:11;2.72;;;1.30;;
48647;SDS011;34437;-33.956;151.076;2023-03-01T07:20:34;3.47;;;1.67;;
48647;SDS011;34437;-33.956;151.076;2023-03-01T07:22:57;2.60;;;1.42;;
48647;SDS011;34437;-33.956;151.076;2023-03-01T07:25:19;3.63;;;1.60;;
48647;SDS011;34437;-33.956;151.076;2023-03-01T07:27:42;3.03;;;1.42;;
48647;SDS011;34437;-33.956;151.076;2023-03-01T07:30:04;3.97;;;1.63;;
48647;SDS011;34437;-33.956;151.076;2023-03-01T07:32:27;3.63;;;2.20;;
48647;SDS011;34437;-33.956;151.076;2023-03-01T07:34:50;2.42;;;1.58;;
48647;SDS011;34437;-33.956;151.076;2023-03-01T07:37:13;4.03;;;1.73;;
48647;SDS011;34437;-33.956;151.076;2023-03-01T07:39:36;4.50;;;1.98;;
48647;SDS011;34437;-33.956;151.076;2023-03-01T07:41:58;2.60;;;1.67;;
48647;SDS011;34437;-33.956;151.076;2023-03-01T07:44:21;5.85;;;2.30;;
48647;SDS011;34437;-33.956;151.076;2023-03-01T07:46:44;4.70;;;1.95;;
48647;SDS011;34437;-33.956;151.076;2023-03-01T07:49:06;5.82;;;1.73;;
48647;SDS011;34437;-33.956;151.076;2023-03-01T07:51:28;3.30;;;1.50;;
48647;SDS011;34437;-33.956;151.076;2023-03-01T07:53:51;3.53;;;1.80;;
48647;SDS011;34437;-33.956;151.076;2023-03-01T07:56:14;2.78;;;1.55;;
48647;SDS011;34437;-33.956;151.076;2023-03-01T07:58:40;6.18;;;2.17;;
48647;SDS011;34437;-33.956;151.076;2023-03-01T08:01:04;4.93;;;2.10;;
48647;SDS011;34437;-33.956;151.076;2023-03-01T08:05:49;2.67;;;1.50;;
48647;SDS011;34437;-33.956;151.076;2023-03-01T08:08:12;4.55;;;2.40;;
48647;SDS011;34437;-33.956;151.076;2023-03-01T08:10:34;5.20;;;2.97;;
48647;SDS011;34437;-33.956;151.076;2023-03-01T08:12:58;5.65;;;3.85;;
48647;SDS011;34437;-33.956;151.076;2023-03-01T08:15:20;5.10;;;3.80;;
48647;SDS011;34437;-33.956;151.076;2023-03-01T08:17:42;6.57;;;4.85;;
48647;SDS011;34437;-33.956;151.076;2023-03-01T08:20:05;6.45;;;5.20;;
48647;SDS011;34437;-33.956;151.076;2023-03-01T08:22:28;6.57;;;5.53;;
48647;SDS011;34437;-33.956;151.076;2023-03-01T08:24:50;8.82;;;6.43;;
48647;SDS011;34437;-33.956;151.076;2023-03-01T08:27:14;7.57;;;6.13;;
48647;SDS011;34437;-33.956;151.076;2023-03-01T08:29:37;7.53;;;6.28;;
48647;SDS011;34437;-33.956;151.076;2023-03-01T08:32:00;8.27;;;6.38;;
48647;SDS011;34437;-33.956;151.076;2023-03-01T08:34:22;7.72;;;6.35;;
48647;SDS011;34437;-33.956;151.076;2023-03-01T08:36:45;8.80;;;7.43;;
48647;SDS011;34437;-33.956;151.076;2023-03-01T08:39:09;10.20;;;7.75;;
48647;SDS011;34437;-33.956;151.076;2023-03-01T08:41:33;10.77;;;7.75;;
48647;SDS011;34437;-33.956;151.076;2023-03-01T08:43:55;10.65;;;8.68;;
48647;SDS011;34437;-33.956;151.076;2023-03-01T08:46:21;10.60;;;8.70;;
48647;SDS011;34437;-33.956;151.076;2023-03-01T08:48:43;10.15;;;8.40;;
48647;SDS011;34437;-33.956;151.076;2023-03-01T08:51:07;10.80;;;9.57;;
48647;SDS011;34437;-33.956;151.076;2023-03-01T08:53:34;13.52;;;8.23;;
48647;SDS011;34437;-33.956;151.076;2023-03-01T08:55:59;9.55;;;8.35;;
48647;SDS011;34437;-33.956;151.076;2023-03-01T08:58:23;9.63;;;7.85;;
48647;SDS011;34437;-33.956;151.076;2023-03-01T09:00:45;11.93;;;8.10;;
48647;SDS011;34437;-33.956;151.076;2023-03-01T09:03:08;11.60;;;8.70;;
48647;SDS011;34437;-33.956;151.076;2023-03-01T09:05:33;10.73;;;7.93;;
48647;SDS011;34437;-33.956;151.076;2023-03-01T09:07:57;7.88;;;7.07;;
48647;SDS011;34437;-33.956;151.076;2023-03-01T09:10:19;7.63;;;6.82;;
48647;SDS011;34437;-33.956;151.076;2023-03-01T09:12:42;8.93;;;6.50;;
48647;SDS011;34437;-33.956;151.076;2023-03-01T09:15:04;8.13;;;6.32;;
48647;SDS011;34437;-33.956;151.076;2023-03-01T09:17:27;18.20;;;6.95;;
48647;SDS011;34437;-33.956;151.076;2023-03-01T09:19:50;10.95;;;6.35;;
48647;SDS011;34437;-33.956;151.076;2023-03-01T09:22:12;9.30;;;5.57;;
48647;SDS011;34437;-33.956;151.076;2023-03-01T09:24:35;8.90;;;5.25;;
48647;SDS011;34437;-33.956;151.076;2023-03-01T09:26:57;11.43;;;6.05;;
48647;SDS011;34437;-33.956;151.076;2023-03-01T09:29:20;8.80;;;4.93;;
48647;SDS011;34437;-33.956;151.076;2023-03-01T09:31:42;8.10;;;5.20;;
48647;SDS011;34437;-33.956;151.076;2023-03-01T09:34:06;7.10;;;4.75;;
48647;SDS011;34437;-33.956;151.076;2023-03-01T09:36:28;5.28;;;4.15;;
48647;SDS011;34437;-33.956;151.076;2023-03-01T09:38:51;7.28;;;3.85;;
48647;SDS011;34437;-33.956;151.076;2023-03-01T09:43:49;6.40;;;3.40;;
48647;SDS011;34437;-33.956;151.076;2023-03-01T09:46:15;7.25;;;3.50;;
48647;SDS011;34437;-33.956;151.076;2023-03-01T09:49:01;4.40;;;2.95;;
48647;SDS011;34437;-33.956;151.076;2023-03-01T09:51:33;6.85;;;3.25;;
48647;SDS011;34437;-33.956;151.076;2023-03-01T09:53:57;4.50;;;3.10;;
48647;SDS011;34437;-33.956;151.076;2023-03-01T09:56:26;17.67;;;3.38;;
48647;SDS011;34437;-33.956;151.076;2023-03-01T10:05:19;6.45;;;2.55;;
48647;SDS011;34437;-33.956;151.076;2023-03-01T10:10:15;10.52;;;3.35;;
48647;SDS011;34437;-33.956;151.076;2023-03-01T10:15:18;12.15;;;3.10;;
48647;SDS011;34437;-33.956;151.076;2023-03-01T10:18:37;15.15;;;4.22;;
48647;SDS011;34437;-33.956;151.076;2023-03-01T10:20:53;13.38;;;4.80;;
48647;SDS011;34437;-33.956;151.076;2023-03-01T10:23:32;11.43;;;4.22;;
48647;SDS011;34437;-33.956;151.076;2023-03-01T10:26:08;14.82;;;3.95;;
48647;SDS011;34437;-33.956;151.076;2023-03-01T10:29:04;10.65;;;3.88;;
48647;SDS011;34437;-33.956;151.076;2023-03-01T10:31:43;12.70;;;3.83;;
48647;SDS011;34437;-33.956;151.076;2023-03-01T10:34:08;10.43;;;3.67;;
48647;SDS011;34437;-33.956;151.076;2023-03-01T10:36:40;12.27;;;3.35;;
48647;SDS011;34437;-33.956;151.076;2023-03-01T10:39:05;11.13;;;3.83;;
48647;SDS011;34437;-33.956;151.076;2023-03-01T10:41:54;8.88;;;3.53;;
48647;SDS011;34437;-33.956;151.076;2023-03-01T10:47:15;5.88;;;2.58;;
48647;SDS011;34437;-33.956;151.076;2023-03-01T10:49:37;8.43;;;2.70;;
48647;SDS011;34437;-33.956;151.076;2023-03-01T10:52:10;7.82;;;2.55;;
48647;SDS011;34437;-33.956;151.076;2023-03-01T10:54:43;8.63;;;2.92;;
48647;SDS011;34437;-33.956;151.076;2023-03-01T10:57:24;5.95;;;2.30;;
48647;SDS011;34437;-33.956;151.076;2023-03-01T11:00:00;6.80;;;2.22;;
48647;SDS011;34437;-33.956;151.076;2023-03-01T11:02:49;6.80;;;2.60;;
48647;SDS011;34437;-33.956;151.076;2023-03-01T11:05:23;5.93;;;2.20;;
48647;SDS011;34437;-33.956;151.076;2023-03-01T11:07:56;3.83;;;1.90;;
48647;SDS011;34437;-33.956;151.076;2023-03-01T11:10:20;5.00;;;1.92;;
48647;SDS011;34437;-33.956;151.076;2023-03-01T11:12:49;8.15;;;2.40;;
48647;SDS011;34437;-33.956;151.076;2023-03-01T11:15:20;4.80;;;2.15;;
48647;SDS011;34437;-33.956;151.076;2023-03-01T11:17:47;5.95;;;1.95;;
48647;SDS011;34437;-33.956;151.076;2023-03-01T11:22:36;5.95;;;1.88;;
48647;SDS011;34437;-33.956;151.076;2023-03-01T11:25:03;6.25;;;2.20;;
48647;SDS011;34437;-33.956;151.076;2023-03-01T11:27:26;7.07;;;1.90;;
48647;SDS011;34437;-33.956;151.076;2023-03-01T11:35:27;5.50;;;1.95;;
48647;SDS011;34437;-33.956;151.076;2023-03-01T11:40:23;14.52;;;2.28;;
48647;SDS011;34437;-33.956;151.076;2023-03-01T11:45:28;15.93;;;2.95;;
48647;SDS011;34437;-33.956;151.076;2023-03-01T11:50:47;11.10;;;2.35;;
48647;SDS011;34437;-33.956;151.076;2023-03-01T11:55:52;10.57;;;2.25;;
48647;SDS011;34437;-33.956;151.076;2023-03-01T12:03:51;5.00;;;1.58;;
48647;SDS011;34437;-33.956;151.076;2023-03-01T12:06:23;3.72;;;1.50;;
48647;SDS011;34437;-33.956;151.076;2023-03-01T12:14:36;5.37;;;1.73;;
48647;SDS011;34437;-33.956;151.076;2023-03-01T12:22:49;3.40;;;1.40;;
48647;SDS011;34437;-33.956;151.076;2023-03-01T12:25:25;2.80;;;1.30;;
48647;SDS011;34437;-33.956;151.076;2023-03-01T12:39:51;3.10;;;1.60;;
48647;SDS011;34437;-33.956;151.076;2023-03-01T12:45:06;2.80;;;1.30;;
48647;SDS011;34437;-33.956;151.076;2023-03-01T12:50:48;4.57;;;1.30;;
48647;SDS011;34437;-33.956;151.076;2023-03-01T12:53:32;2.00;;;1.10;;
48647;SDS011;34437;-33.956;151.076;2023-03-01T12:56:02;5.93;;;1.10;;
48647;SDS011;34437;-33.956;151.076;2023-03-01T12:58:35;2.35;;;1.10;;
48647;SDS011;34437;-33.956;151.076;2023-03-01T13:01:11;2.20;;;1.30;;
48647;SDS011;34437;-33.956;151.076;2023-03-01T13:06:26;1.88;;;0.95;;
48647;SDS011;34437;-33.956;151.076;2023-03-01T13:09:23;2.10;;;1.08;;
48647;SDS011;34437;-33.956;151.076;2023-03-01T13:11:46;3.35;;;0.98;;
48647;SDS011;34437;-33.956;151.076;2023-03-01T13:17:07;2.72;;;1.02;;
48647;SDS011;34437;-33.956;151.076;2023-03-01T13:20:01;2.92;;;1.02;;
48647;SDS011;34437;-33.956;151.076;2023-03-01T13:22:26;3.70;;;1.25;;
48647;SDS011;34437;-33.956;151.076;2023-03-01T13:25:00;2.35;;;1.00;;
48647;SDS011;34437;-33.956;151.076;2023-03-01T13:27:36;1.95;;;1.27;;
48647;SDS011;34437;-33.956;151.076;2023-03-01T13:30:00;2.55;;;1.25;;
48647;SDS011;34437;-33.956;151.076;2023-03-01T13:32:30;1.75;;;0.85;;
48647;SDS011;34437;-33.956;151.076;2023-03-01T13:35:02;2.05;;;1.00;;
48647;SDS011;34437;-33.956;151.076;2023-03-01T13:37:44;2.67;;;1.30;;
48647;SDS011;34437;-33.956;151.076;2023-03-01T13:42:42;2.45;;;1.13;;
48647;SDS011;34437;-33.956;151.076;2023-03-01T13:47:41;3.97;;;1.33;;
48647;SDS011;34437;-33.956;151.076;2023-03-01T13:50:04;2.10;;;1.20;;
48647;SDS011;34437;-33.956;151.076;2023-03-01T13:55:20;3.00;;;1.15;;
48647;SDS011;34437;-33.956;151.076;2023-03-01T13:58:04;3.13;;;0.98;;
48647;SDS011;34437;-33.956;151.076;2023-03-01T14:00:38;2.90;;;1.30;;
48647;SDS011;34437;-33.956;151.076;2023-03-01T14:03:02;2.80;;;1.20;;
48647;SDS011;34437;-33.956;151.076;2023-03-01T14:05:24;6.32;;;1.20;;
48647;SDS011;34437;-33.956;151.076;2023-03-01T14:07:50;3.15;;;1.15;;
48647;SDS011;34437;-33.956;151.076;2023-03-01T14:10:13;2.55;;;1.13;;
48647;SDS011;34437;-33.956;151.076;2023-03-01T14:12:41;4.05;;;1.08;;
48647;SDS011;34437;-33.956;151.076;2023-03-01T14:15:14;2.53;;;1.10;;
48647;SDS011;34437;-33.956;151.076;2023-03-01T14:17:52;1.95;;;1.10;;
48647;SDS011;34437;-33.956;151.076;2023-03-01T14:20:18;2.67;;;1.13;;
48647;SDS011;34437;-33.956;151.076;2023-03-01T14:22:56;3.97;;;1.10;;
48647;SDS011;34437;-33.956;151.076;2023-03-01T14:27:46;2.40;;;0.90;;
48647;SDS011;34437;-33.956;151.076;2023-03-01T14:30:21;3.08;;;1.20;;
48647;SDS011;34437;-33.956;151.076;2023-03-01T14:32:52;3.97;;;1.20;;
48647;SDS011;34437;-33.956;151.076;2023-03-01T14:35:23;2.83;;;0.95;;
48647;SDS011;34437;-33.956;151.076;2023-03-01T14:37:48;3.50;;;1.30;;
48647;SDS011;34437;-33.956;151.076;2023-03-01T14:40:19;2.38;;;0.82;;
48647;SDS011;34437;-33.956;151.076;2023-03-01T14:42:49;1.92;;;1.05;;
48647;SDS011;34437;-33.956;151.076;2023-03-01T14:47:35;3.20;;;1.45;;
48647;SDS011;34437;-33.956;151.076;2023-03-01T14:50:42;2.28;;;1.10;;
48647;SDS011;34437;-33.956;151.076;2023-03-01T14:52:48;4.15;;;1.13;;
48647;SDS011;34437;-33.956;151.076;2023-03-01T14:55:48;8.25;;;1.50;;
48647;SDS011;34437;-33.956;151.076;2023-03-01T14:58:06;2.47;;;0.90;;
48647;SDS011;34437;-33.956;151.076;2023-03-01T15:00:34;9.73;;;1.63;;
48647;SDS011;34437;-33.956;151.076;2023-03-01T15:02:58;2.80;;;1.30;;
48647;SDS011;34437;-33.956;151.076;2023-03-01T15:05:31;3.80;;;1.03;;
48647;SDS011;34437;-33.956;151.076;2023-03-01T15:07:54;2.75;;;1.10;;
48647;SDS011;34437;-33.956;151.076;2023-03-01T15:10:23;2.13;;;1.25;;
48647;SDS011;34437;-33.956;151.076;2023-03-01T15:12:47;3.20;;;1.35;;
48647;SDS011;34437;-33.956;151.076;2023-03-01T15:17:53;2.67;;;1.20;;
48647;SDS011;34437;-33.956;151.076;2023-03-01T15:20:17;1.90;;;1.13;;
48647;SDS011;34437;-33.956;151.076;2023-03-01T15:22:46;2.35;;;1.02;;
48647;SDS011;34437;-33.956;151.076;2023-03-01T15:25:18;2.80;;;1.00;;
48647;SDS011;34437;-33.956;151.076;2023-03-01T15:27:46;2.53;;;1.27;;
48647;SDS011;34437;-33.956;151.076;2023-03-01T15:30:13;3.55;;;1.20;;
48647;SDS011;34437;-33.956;151.076;2023-03-01T15:32:44;2.40;;;0.93;;
48647;SDS011;34437;-33.956;151.076;2023-03-01T15:38:00;2.53;;;1.17;;
48647;SDS011;34437;-33.956;151.076;2023-03-01T15:40:23;4.25;;;1.02;;
48647;SDS011;34437;-33.956;151.076;2023-03-01T15:42:53;2.58;;;1.13;;
48647;SDS011;34437;-33.956;151.076;2023-03-01T15:47:39;2.55;;;1.35;;
48647;SDS011;34437;-33.956;151.076;2023-03-01T15:50:02;2.35;;;1.13;;
48647;SDS011;34437;-33.956;151.076;2023-03-01T15:52:26;1.83;;;1.00;;
48647;SDS011;34437;-33.956;151.076;2023-03-01T15:55:02;1.50;;;1.00;;
48647;SDS011;34437;-33.956;151.076;2023-03-01T15:57:27;3.70;;;1.50;;